createdAt,value
2022-08-22T00:01:35.778Z,6.70
2022-08-22T00:02:54.637Z,7.78
2022-08-22T00:03:04.030Z,4.45
2022-08-22T00:03:08.059Z,8.57
2022-08-22T00:04:08.128Z,9.18
2022-08-22T00:06:38.523Z,6.85
2022-08-22T00:09:18.123Z,7.07
2022-08-22T00:11:48.481Z,6.10
2022-08-22T00:14:19.044Z,10.18
2022-08-22T00:16:53.439Z,7.93
2022-08-22T00:19:25.001Z,10.70
2022-08-22T00:21:54.480Z,5.75
2022-08-22T00:24:26.627Z,11.40
2022-08-22T00:26:57.197Z,7.40
2022-08-22T00:29:26.137Z,5.45
2022-08-22T00:32:01.839Z,9.27
2022-08-22T00:34:33.819Z,8.75
2022-08-22T00:37:04.420Z,7.25
2022-08-22T00:39:35.525Z,6.63
2022-08-22T00:42:13.256Z,7.43
2022-08-22T00:44:54.871Z,9.55
2022-08-22T00:47:32.225Z,6.57
2022-08-22T00:50:04.432Z,8.40
2022-08-22T00:52:45.310Z,8.93
2022-08-22T00:55:35.113Z,6.28
2022-08-22T00:58:22.658Z,7.32
2022-08-22T01:00:53.748Z,10.02
2022-08-22T01:03:36.154Z,7.18
2022-08-22T01:06:11.013Z,6.25
2022-08-22T01:08:44.965Z,7.28
2022-08-22T01:11:24.938Z,10.40
2022-08-22T01:14:00.721Z,8.07
2022-08-22T01:16:36.788Z,13.32
2022-08-22T01:19:19.243Z,9.57
2022-08-22T01:21:59.325Z,11.90
2022-08-22T01:25:22.464Z,9.30
2022-08-22T01:28:07.343Z,7.25
2022-08-22T01:30:54.457Z,8.38
2022-08-22T01:33:36.556Z,8.65
2022-08-22T01:36:13.983Z,8.57
2022-08-22T01:38:55.275Z,10.25
2022-08-22T01:41:31.291Z,7.57
2022-08-22T01:44:04.166Z,8.75
2022-08-22T01:46:43.921Z,10.50
2022-08-22T01:49:22.369Z,6.70
2022-08-22T01:51:54.924Z,8.38
2022-08-22T01:54:35.115Z,11.90
2022-08-22T01:57:05.568Z,14.63
2022-08-22T01:59:34.810Z,9.25
2022-08-22T02:02:16.529Z,12.20
2022-08-22T02:04:48.525Z,13.68
2022-08-22T02:07:19.417Z,10.32
2022-08-22T02:09:49.608Z,6.88
2022-08-22T02:12:25.600Z,14.93
2022-08-22T02:14:56.552Z,10.63
2022-08-22T02:17:26.454Z,8.55
2022-08-22T02:19:59.133Z,9.57
2022-08-22T02:22:35.871Z,6.50
2022-08-22T02:25:13.422Z,8.82
2022-08-22T02:27:47.439Z,9.77
2022-08-22T02:30:16.605Z,9.77
2022-08-22T02:32:52.687Z,6.60
2022-08-22T02:35:23.510Z,10.32
2022-08-22T02:37:59.659Z,11.70
2022-08-22T02:40:29.566Z,12.68
2022-08-22T02:42:59.872Z,8.15
2022-08-22T02:45:31.464Z,8.57
2022-08-22T02:48:02.432Z,12.80
2022-08-22T02:50:34.153Z,10.60
2022-08-22T02:53:06.339Z,10.02
2022-08-22T02:55:39.673Z,12.15
2022-08-22T02:58:09.117Z,8.77
2022-08-22T03:00:45.725Z,8.43
2022-08-22T03:03:17.236Z,11.57
2022-08-22T03:05:50.504Z,12.02
2022-08-22T03:08:22.130Z,8.70
2022-08-22T03:10:55.254Z,9.13
2022-08-22T03:13:26.711Z,15.75
2022-08-22T03:15:56.201Z,12.20
2022-08-22T03:18:26.738Z,8.15
2022-08-22T03:20:59.017Z,9.27
2022-08-22T03:23:37.369Z,10.68
2022-08-22T03:26:09.602Z,8.00
2022-08-22T03:28:52.633Z,11.40
2022-08-22T03:31:27.893Z,9.77
2022-08-22T03:34:14.509Z,10.73
2022-08-22T03:36:47.100Z,13.80
2022-08-22T03:39:19.727Z,11.85
2022-08-22T03:41:59.974Z,11.23
2022-08-22T03:44:42.793Z,8.63
2022-08-22T03:47:19.504Z,11.55
2022-08-22T03:50:10.862Z,13.13
2022-08-22T03:53:03.161Z,8.88
2022-08-22T03:55:39.843Z,13.02
2022-08-22T03:58:28.111Z,15.13
2022-08-22T04:01:20.726Z,10.40
2022-08-22T04:04:20.219Z,11.30
2022-08-22T04:07:09.344Z,8.82
2022-08-22T04:10:09.320Z,16.05
2022-08-22T04:12:57.682Z,10.02
2022-08-22T04:15:36.547Z,12.55
2022-08-22T04:18:19.556Z,10.65
2022-08-22T04:21:18.144Z,8.77
2022-08-22T04:23:55.752Z,13.43
2022-08-22T04:26:28.438Z,12.10
2022-08-22T04:29:00.345Z,13.18
2022-08-22T04:31:29.007Z,11.68
2022-08-22T04:33:58.680Z,16.13
2022-08-22T04:36:27.565Z,10.98
2022-08-22T04:38:59.599Z,8.95
2022-08-22T04:41:31.393Z,13.60
2022-08-22T04:44:03.087Z,12.00
2022-08-22T04:46:37.058Z,12.95
2022-08-22T04:49:07.103Z,13.10
2022-08-22T04:51:36.333Z,14.15
2022-08-22T04:54:19.071Z,11.07
2022-08-22T04:56:55.675Z,11.38
2022-08-22T04:59:25.364Z,14.95
2022-08-22T05:01:55.745Z,11.43
2022-08-22T05:04:25.221Z,13.13
2022-08-22T05:06:55.155Z,11.05
2022-08-22T05:09:25.191Z,13.50
2022-08-22T05:11:55.491Z,10.38
2022-08-22T05:14:27.040Z,11.30
2022-08-22T05:16:56.127Z,9.85
2022-08-22T05:19:31.696Z,11.50
2022-08-22T05:22:00.859Z,9.52
2022-08-22T05:24:32.918Z,10.68
2022-08-22T05:27:05.220Z,10.30
2022-08-22T05:29:34.831Z,12.90
2022-08-22T05:32:04.513Z,10.07
2022-08-22T05:34:34.674Z,11.55
2022-08-22T05:37:05.275Z,9.35
2022-08-22T05:39:36.290Z,10.57
2022-08-22T05:42:04.664Z,10.75
2022-08-22T05:44:32.960Z,9.43
2022-08-22T05:47:04.482Z,11.27
2022-08-22T05:49:35.859Z,10.32
2022-08-22T05:52:09.937Z,11.88
2022-08-22T05:54:42.328Z,10.85
2022-08-22T05:57:12.901Z,9.82
2022-08-22T05:59:42.712Z,10.30
2022-08-22T06:02:13.915Z,9.45
2022-08-22T06:04:47.442Z,13.43
2022-08-22T06:07:17.202Z,10.73
2022-08-22T06:10:02.182Z,10.25
2022-08-22T06:12:33.584Z,7.63
2022-08-22T06:15:12.034Z,12.18
2022-08-22T06:17:43.834Z,8.73
2022-08-22T06:20:14.665Z,9.27
2022-08-22T06:22:45.868Z,13.18
2022-08-22T06:25:15.381Z,10.18
2022-08-22T06:27:44.178Z,13.43
2022-08-22T06:30:14.119Z,14.80
2022-08-22T06:32:59.926Z,7.97
2022-08-22T06:35:50.671Z,12.02
2022-08-22T06:38:19.902Z,11.73
2022-08-22T06:40:48.140Z,11.88
2022-08-22T06:43:16.284Z,8.82
2022-08-22T06:45:44.362Z,13.75
2022-08-22T06:48:17.238Z,9.20
2022-08-22T06:50:46.757Z,7.97
2022-08-22T06:53:17.052Z,10.90
2022-08-22T06:55:49.152Z,8.05
2022-08-22T06:58:18.619Z,10.43
2022-08-22T07:00:53.548Z,6.97
2022-08-22T07:03:38.207Z,8.45
2022-08-22T07:06:06.080Z,6.82
2022-08-22T07:08:39.045Z,6.43
2022-08-22T07:11:10.079Z,8.65
2022-08-22T07:13:39.125Z,9.38
2022-08-22T07:16:08.456Z,8.60
2022-08-22T07:18:46.616Z,8.00
2022-08-22T07:21:25.070Z,7.63
2022-08-22T07:23:53.275Z,10.32
2022-08-22T07:26:26.715Z,14.07
2022-08-22T07:28:58.626Z,15.88
2022-08-22T07:31:32.081Z,8.60
2022-08-22T07:34:10.231Z,8.48
2022-08-22T07:36:45.016Z,7.03
2022-08-22T07:39:26.074Z,6.25
2022-08-22T07:42:07.141Z,10.90
2022-08-22T07:44:38.622Z,6.65
2022-08-22T07:47:08.115Z,7.93
2022-08-22T07:49:39.650Z,11.40
2022-08-22T07:52:18.649Z,9.98
2022-08-22T07:54:48.066Z,9.38
2022-08-22T07:57:17.443Z,7.13
2022-08-22T07:59:48.402Z,5.78
2022-08-22T08:02:17.302Z,4.85
2022-08-22T08:04:47.956Z,6.28
2022-08-22T08:07:18.834Z,5.25
2022-08-22T08:09:49.928Z,5.57
2022-08-22T08:12:19.948Z,8.43
2022-08-22T08:14:51.021Z,19.83
2022-08-22T08:17:22.795Z,5.38
2022-08-22T08:19:54.414Z,5.15
2022-08-22T08:22:25.734Z,6.93
2022-08-22T08:24:56.574Z,5.93
2022-08-22T08:27:43.209Z,4.85
2022-08-22T08:30:15.421Z,5.97
2022-08-22T08:32:44.277Z,6.18
2022-08-22T08:35:17.992Z,5.45
2022-08-22T08:37:47.016Z,4.60
2022-08-22T08:40:21.686Z,6.25
2022-08-22T08:43:14.799Z,5.88
2022-08-22T08:45:59.148Z,7.15
2022-08-22T08:48:45.885Z,6.70
2022-08-22T08:51:19.475Z,5.72
2022-08-22T08:53:59.919Z,5.15
2022-08-22T08:56:35.105Z,10.45
2022-08-22T08:59:10.198Z,6.75
2022-08-22T09:01:56.653Z,6.90
2022-08-22T09:04:32.665Z,5.07
2022-08-22T09:07:15.492Z,6.57
2022-08-22T09:09:52.569Z,4.72
2022-08-22T09:12:56.913Z,7.60
2022-08-22T09:15:37.297Z,5.90
2022-08-22T09:18:33.495Z,6.18
2022-08-22T09:21:16.711Z,5.32
2022-08-22T09:24:19.761Z,4.63
2022-08-22T09:26:50.148Z,4.82
2022-08-22T09:29:29.819Z,8.95
2022-08-22T09:32:04.643Z,6.47
2022-08-22T09:34:35.924Z,6.85
2022-08-22T09:37:09.623Z,6.50
2022-08-22T09:39:49.419Z,4.78
2022-08-22T09:42:22.538Z,5.05
2022-08-22T09:45:09.033Z,6.40
2022-08-22T09:47:39.303Z,4.65
2022-08-22T09:50:13.704Z,5.32
2022-08-22T09:52:51.144Z,5.30
2022-08-22T09:55:35.225Z,7.95
2022-08-22T09:58:11.485Z,7.35
2022-08-22T10:00:45.022Z,4.95
2022-08-22T10:03:18.460Z,4.43
2022-08-22T10:05:48.543Z,5.28
2022-08-22T10:08:38.521Z,4.28
2022-08-22T10:11:24.347Z,8.23
2022-08-22T10:14:02.496Z,4.78
2022-08-22T10:16:45.765Z,4.47
2022-08-22T10:19:17.030Z,4.00
2022-08-22T10:21:51.204Z,4.35
2022-08-22T10:24:25.636Z,6.50
2022-08-22T10:26:55.263Z,4.20
2022-08-22T10:29:56.449Z,3.92
2022-08-22T10:32:30.857Z,3.42
2022-08-22T10:35:00.283Z,3.95
2022-08-22T10:37:33.002Z,3.80
2022-08-22T10:40:02.747Z,3.70
2022-08-22T10:42:35.146Z,3.72
2022-08-22T10:45:35.872Z,4.13
2022-08-22T10:48:28.644Z,5.88
2022-08-22T10:51:00.866Z,4.05
2022-08-22T10:53:35.022Z,3.95
2022-08-22T10:56:09.898Z,3.70
2022-08-22T10:58:40.971Z,4.47
2022-08-22T11:01:38.368Z,3.55
2022-08-22T11:04:05.524Z,3.53
2022-08-22T11:06:42.078Z,3.50
2022-08-22T11:09:19.856Z,3.78
2022-08-22T11:11:49.626Z,3.67
2022-08-22T11:14:35.709Z,3.72
2022-08-22T11:17:27.348Z,6.68
2022-08-22T11:20:03.839Z,3.53
2022-08-22T11:22:34.948Z,3.17
2022-08-22T11:25:15.164Z,3.42
2022-08-22T11:28:02.653Z,5.50
2022-08-22T11:30:36.401Z,4.70
2022-08-22T11:33:17.487Z,3.65
2022-08-22T11:35:51.974Z,6.10
2022-08-22T11:38:32.654Z,4.35
2022-08-22T11:41:03.638Z,4.85
2022-08-22T11:43:46.659Z,3.38
2022-08-22T11:46:19.988Z,3.55
2022-08-22T11:48:57.869Z,2.95
2022-08-22T11:51:35.311Z,3.00
2022-08-22T11:54:10.266Z,4.40
2022-08-22T11:56:41.690Z,3.53
2022-08-22T11:59:16.449Z,3.20
2022-08-22T12:01:49.203Z,4.47
2022-08-22T12:04:19.818Z,4.38
2022-08-22T12:07:05.594Z,5.18
2022-08-22T12:09:50.731Z,6.13
2022-08-22T12:12:25.354Z,5.25
2022-08-22T12:14:57.626Z,4.38
2022-08-22T12:17:55.099Z,5.43
2022-08-22T12:20:37.266Z,3.20
2022-08-22T12:23:16.749Z,3.67
2022-08-22T12:26:05.965Z,5.97
2022-08-22T12:28:43.487Z,4.18
2022-08-22T12:31:18.740Z,3.25
2022-08-22T12:33:51.707Z,10.20
2022-08-22T12:36:24.458Z,3.83
2022-08-22T12:39:01.507Z,7.30
2022-08-22T12:41:38.105Z,4.18
2022-08-22T12:44:17.195Z,3.00
2022-08-22T12:46:56.471Z,4.90
2022-08-22T12:49:36.996Z,3.03
2022-08-22T12:52:14.019Z,4.03
2022-08-22T12:54:47.429Z,3.00
2022-08-22T12:57:23.545Z,3.92
2022-08-22T12:59:54.045Z,3.42
2022-08-22T13:02:26.012Z,3.33
2022-08-22T13:04:54.763Z,2.88
2022-08-22T13:07:27.043Z,3.35
2022-08-22T13:10:00.564Z,4.43
2022-08-22T13:12:34.288Z,3.35
2022-08-22T13:15:22.426Z,7.93
2022-08-22T13:17:52.193Z,3.50
2022-08-22T13:20:23.286Z,3.35
2022-08-22T13:22:55.627Z,6.70
2022-08-22T13:25:26.219Z,6.07
2022-08-22T13:27:56.774Z,2.83
2022-08-22T13:30:29.856Z,5.20
2022-08-22T13:33:05.027Z,3.30
2022-08-22T13:35:39.877Z,3.15
2022-08-22T13:38:14.229Z,3.10
2022-08-22T13:40:45.830Z,3.65
2022-08-22T13:43:19.901Z,4.65
2022-08-22T13:45:54.088Z,3.00
2022-08-22T13:48:23.898Z,3.60
2022-08-22T13:51:02.654Z,4.38
2022-08-22T13:53:37.078Z,3.08
2022-08-22T13:56:15.851Z,5.13
2022-08-22T13:58:46.239Z,4.15
2022-08-22T14:01:32.163Z,3.08
2022-08-22T14:04:01.255Z,3.47
2022-08-22T14:06:37.916Z,3.00
2022-08-22T14:09:17.388Z,3.13
2022-08-22T14:12:05.103Z,3.30
2022-08-22T14:14:36.628Z,3.05
2022-08-22T14:17:05.046Z,3.20
2022-08-22T14:19:39.968Z,3.25
2022-08-22T14:22:32.304Z,3.10
2022-08-22T14:25:04.379Z,5.43
2022-08-22T14:27:36.524Z,3.47
2022-08-22T14:30:14.809Z,3.25
2022-08-22T14:32:47.654Z,3.50
2022-08-22T14:35:23.426Z,4.60
2022-08-22T14:38:17.378Z,5.85
2022-08-22T14:40:46.096Z,5.38
2022-08-22T14:43:22.190Z,5.88
2022-08-22T14:45:57.317Z,5.80
2022-08-22T14:48:33.189Z,4.25
2022-08-22T14:51:05.398Z,4.45
2022-08-22T14:53:33.755Z,3.30
2022-08-22T14:56:03.740Z,6.07
2022-08-22T14:58:35.172Z,5.35
2022-08-22T15:01:11.166Z,5.53
2022-08-22T15:03:40.910Z,3.50
2022-08-22T15:06:11.691Z,3.05
2022-08-22T15:08:42.345Z,4.65
2022-08-22T15:11:20.345Z,3.40
2022-08-22T15:13:54.134Z,5.80
2022-08-22T15:16:24.255Z,3.00
2022-08-22T15:18:52.290Z,3.72
2022-08-22T15:21:24.498Z,3.28
2022-08-22T15:23:54.008Z,4.43
2022-08-22T15:26:28.003Z,3.83
2022-08-22T15:29:04.437Z,3.05
2022-08-22T15:31:34.213Z,5.32
2022-08-22T15:34:10.649Z,3.38
2022-08-22T15:36:58.566Z,3.30
2022-08-22T15:39:33.919Z,3.10
2022-08-22T15:42:02.761Z,3.33
2022-08-22T15:44:33.523Z,3.90
2022-08-22T15:47:15.118Z,4.30
2022-08-22T15:49:53.902Z,2.60
2022-08-22T15:52:23.971Z,6.65
2022-08-22T15:55:17.054Z,4.38
2022-08-22T15:58:02.866Z,4.20
2022-08-22T16:00:32.630Z,2.88
2022-08-22T16:03:03.507Z,4.20
2022-08-22T16:05:41.361Z,2.80
2022-08-22T16:08:11.010Z,2.88
2022-08-22T16:10:40.158Z,4.55
2022-08-22T16:13:13.793Z,3.53
2022-08-22T16:16:01.215Z,3.10
2022-08-22T16:18:47.473Z,3.00
2022-08-22T16:21:16.582Z,3.00
2022-08-22T16:24:02.977Z,3.70
2022-08-22T16:26:38.120Z,2.78
2022-08-22T16:29:07.926Z,3.20
2022-08-22T16:31:37.067Z,2.72
2022-08-22T16:34:22.205Z,3.40
2022-08-22T16:36:52.249Z,3.17
2022-08-22T16:39:41.245Z,3.55
2022-08-22T16:42:23.658Z,4.90
2022-08-22T16:44:52.881Z,5.47
2022-08-22T16:47:22.355Z,2.83
2022-08-22T16:49:58.142Z,4.97
2022-08-22T16:52:44.129Z,6.35
2022-08-22T16:55:26.579Z,3.08
2022-08-22T16:58:06.062Z,3.20
2022-08-22T17:00:42.716Z,5.30
2022-08-22T17:03:14.039Z,4.10
2022-08-22T17:05:47.694Z,3.80
2022-08-22T17:08:31.718Z,3.38
2022-08-22T17:11:04.060Z,3.78
2022-08-22T17:13:43.438Z,3.30
2022-08-22T17:16:29.471Z,4.70
2022-08-22T17:19:03.939Z,2.70
2022-08-22T17:21:38.384Z,3.90
2022-08-22T17:24:34.083Z,4.43
2022-08-22T17:27:06.451Z,2.20
2022-08-22T17:29:43.686Z,5.13
2022-08-22T17:32:16.330Z,2.85
2022-08-22T17:34:47.891Z,6.75
2022-08-22T17:37:21.599Z,3.17
2022-08-22T17:39:55.912Z,3.97
2022-08-22T17:42:44.024Z,2.80
2022-08-22T17:45:23.429Z,2.92
2022-08-22T17:47:56.275Z,6.25
2022-08-22T17:50:26.649Z,3.38
2022-08-22T17:52:57.720Z,2.72
2022-08-22T17:55:28.212Z,3.08
2022-08-22T17:57:58.934Z,3.00
2022-08-22T18:00:31.154Z,2.53
2022-08-22T18:03:02.179Z,2.70
2022-08-22T18:05:31.782Z,4.88
2022-08-22T18:08:04.911Z,3.35
2022-08-22T18:10:38.948Z,3.00
2022-08-22T18:13:08.094Z,2.88
2022-08-22T18:15:41.975Z,2.58
2022-08-22T18:18:14.152Z,3.58
2022-08-22T18:20:51.530Z,2.75
2022-08-22T18:23:35.620Z,3.30
2022-08-22T18:26:15.646Z,3.83
2022-08-22T18:28:45.168Z,5.35
2022-08-22T18:31:21.607Z,2.65
2022-08-22T18:33:51.814Z,2.60
2022-08-22T18:36:22.351Z,3.78
2022-08-22T18:38:54.870Z,3.28
2022-08-22T18:41:26.158Z,5.18
2022-08-22T18:43:54.405Z,3.03
2022-08-22T18:46:40.735Z,6.97
2022-08-22T18:49:15.539Z,3.85
2022-08-22T18:51:44.165Z,2.63
2022-08-22T18:54:30.870Z,2.65
2022-08-22T18:57:05.661Z,3.40
2022-08-22T18:59:42.748Z,5.18
2022-08-22T19:02:17.274Z,5.03
2022-08-22T19:05:02.874Z,3.00
2022-08-22T19:07:55.452Z,6.50
2022-08-22T19:10:40.845Z,5.45
2022-08-22T19:13:18.085Z,6.55
2022-08-22T19:15:51.962Z,5.40
2022-08-22T19:18:36.231Z,7.28
2022-08-22T19:21:37.591Z,3.63
2022-08-22T19:24:06.254Z,6.60
2022-08-22T19:26:35.755Z,4.43
2022-08-22T19:29:08.777Z,3.35
2022-08-22T19:31:59.206Z,6.95
2022-08-22T19:34:37.721Z,7.15
2022-08-22T19:37:32.861Z,7.32
2022-08-22T19:40:02.382Z,5.95
2022-08-22T19:42:34.876Z,5.70
2022-08-22T19:45:04.399Z,5.20
2022-08-22T19:47:34.820Z,6.70
2022-08-22T19:50:06.836Z,4.47
2022-08-22T19:52:39.670Z,5.30
2022-08-22T19:55:12.156Z,3.22
2022-08-22T19:57:44.257Z,5.15
2022-08-22T20:00:13.292Z,7.13
2022-08-22T20:02:51.294Z,7.00
2022-08-22T20:05:24.534Z,5.13
2022-08-22T20:07:58.443Z,8.60
2022-08-22T20:10:29.593Z,4.65
2022-08-22T20:13:05.662Z,8.38
2022-08-22T20:15:55.430Z,3.25
2022-08-22T20:19:05.120Z,4.68
2022-08-22T20:21:44.453Z,4.03
2022-08-22T20:24:15.328Z,4.03
2022-08-22T20:27:10.066Z,5.32
2022-08-22T20:29:33.123Z,3.80
2022-08-22T20:32:01.031Z,5.00
2022-08-22T20:34:30.291Z,6.10
2022-08-22T20:37:16.158Z,6.20
2022-08-22T20:39:58.707Z,7.65
2022-08-22T20:42:31.893Z,4.97
2022-08-22T20:45:00.818Z,5.35
2022-08-22T20:47:32.315Z,6.97
2022-08-22T20:50:10.178Z,6.05
2022-08-22T20:52:39.187Z,4.95
2022-08-22T20:55:12.916Z,3.85
2022-08-22T20:57:45.775Z,6.10
2022-08-22T21:00:14.461Z,6.00
2022-08-22T21:02:43.307Z,5.47
2022-08-22T21:05:18.477Z,4.47
2022-08-22T21:07:46.806Z,6.30
2022-08-22T21:10:36.571Z,3.42
2022-08-22T21:13:06.677Z,7.50
2022-08-22T21:15:35.092Z,6.38
2022-08-22T21:18:02.845Z,4.68
2022-08-22T21:20:31.874Z,6.00
2022-08-22T21:23:02.076Z,5.50
2022-08-22T21:25:31.410Z,5.07
2022-08-22T21:28:00.737Z,6.30
2022-08-22T21:30:29.421Z,4.57
2022-08-22T21:32:57.853Z,5.85
2022-08-22T21:35:27.705Z,4.22
2022-08-22T21:37:55.683Z,5.85
2022-08-22T21:40:24.818Z,5.70
2022-08-22T21:43:01.506Z,7.50
2022-08-22T21:45:30.409Z,6.07
2022-08-22T21:47:58.462Z,6.32
2022-08-22T21:50:28.971Z,3.60
2022-08-22T21:53:04.604Z,3.75
2022-08-22T21:55:34.883Z,3.75
2022-08-22T21:58:05.849Z,8.50
2022-08-22T22:00:48.674Z,3.53
2022-08-22T22:03:17.538Z,5.43
2022-08-22T22:05:45.239Z,6.85
2022-08-22T22:08:12.840Z,5.28
2022-08-22T22:10:41.367Z,5.35
2022-08-22T22:13:10.530Z,3.42
2022-08-22T22:15:40.671Z,3.85
2022-08-22T22:18:09.827Z,5.70
2022-08-22T22:20:37.605Z,6.85
2022-08-22T22:23:05.698Z,4.82
2022-08-22T22:25:40.676Z,3.90
2022-08-22T22:28:12.115Z,6.10
2022-08-22T22:30:40.049Z,3.35
2022-08-22T22:33:07.804Z,6.63
2022-08-22T22:35:35.463Z,5.57
2022-08-22T22:38:04.192Z,7.18
2022-08-22T22:40:31.872Z,3.38
2022-08-22T22:42:59.471Z,3.63
2022-08-22T22:45:28.370Z,3.20
2022-08-22T22:47:56.653Z,5.90
2022-08-22T22:50:24.442Z,3.42
2022-08-22T22:52:54.123Z,6.05
2022-08-22T22:55:24.610Z,3.28
2022-08-22T22:57:58.381Z,5.47
2022-08-22T23:00:30.540Z,6.25
2022-08-22T23:02:59.115Z,3.42
2022-08-22T23:05:26.669Z,6.53
2022-08-22T23:07:54.257Z,4.95
2022-08-22T23:10:22.294Z,6.25
2022-08-22T23:12:50.159Z,6.97
2022-08-22T23:15:17.763Z,4.63
2022-08-22T23:17:46.824Z,2.97
2022-08-22T23:20:14.465Z,5.38
2022-08-22T23:22:42.943Z,3.10
2022-08-22T23:25:10.514Z,3.65
2022-08-22T23:27:38.275Z,6.10
2022-08-22T23:30:08.479Z,3.03
2022-08-22T23:32:36.748Z,8.18
2022-08-22T23:35:06.115Z,2.97
2022-08-22T23:37:33.775Z,4.75
2022-08-22T23:40:01.414Z,3.10
2022-08-22T23:42:29.565Z,3.60
2022-08-22T23:44:57.177Z,3.20
2022-08-22T23:47:24.740Z,2.67
2022-08-22T23:49:52.372Z,2.88
2022-08-22T23:52:21.458Z,3.70
2022-08-22T23:54:54.394Z,2.90
2022-08-22T23:57:26.571Z,3.05
2022-08-22T23:59:57.297Z,3.05
